CheckWX is a tool to help pilots better visualize weather data.  It is not intended as a substitute for an official pre-flight weather briefing.

21:58:28 UTC

PAGY TAF
Skagway Airport
Skagway, Alaska, USA
PAGY 191735Z 1918/2018 21018KT P6SM -RA OVC050 FM201200 21012G20KT P6SM -RA OVC015 AMD LTD TO CLD VIS AND WIND

Sep-19@
18:00 UTC

Sep-19 @ 18:00 UTC

Sep-20@
12:00 UTC

Sep-20 @ 12:00 UTC

PAGY 191735Z 1918/2018 21018KT P6SM -RA OVC050
Wind
  • 210° at 18 KTS
Conditions
Light Rain
Cloud Levels
  • Overcast at 5,000' AGL

Sep-20@
12:00 UTC

Sep-20 @ 12:00 UTC

Sep-20@
18:00 UTC

Sep-20 @ 18:00 UTC

FM201200 21012G20KT P6SM -RA OVC015 AMD LTD TO CLD VIS AND WIND

From

From Standard forecast or significant change

Wind
  • 210° at 12 KTS
  • {Gusting to 20 KTS
Conditions
Light Rain
Cloud Levels
  • Overcast at 1,500' AGL